createdAt,value
2018-07-23T00:02:02.802Z,10.73
2018-07-23T00:04:31.231Z,11.20
2018-07-23T00:06:59.645Z,11.27
2018-07-23T00:09:28.066Z,11.40
2018-07-23T00:11:56.474Z,11.73
2018-07-23T00:14:24.925Z,12.00
2018-07-23T00:16:53.358Z,13.00
2018-07-23T00:19:21.775Z,12.63
2018-07-23T00:21:50.190Z,11.93
2018-07-23T00:24:18.634Z,12.80
2018-07-23T00:26:47.041Z,11.77
2018-07-23T00:29:15.481Z,12.07
2018-07-23T00:31:43.914Z,13.33
2018-07-23T00:34:12.350Z,11.67
2018-07-23T00:36:40.765Z,12.07
2018-07-23T00:39:09.240Z,11.73
2018-07-23T00:41:37.639Z,11.20
2018-07-23T00:44:06.413Z,11.83
2018-07-23T00:46:34.862Z,11.67
2018-07-23T00:49:03.301Z,12.43
2018-07-23T00:51:31.750Z,12.10
2018-07-23T00:54:00.161Z,13.43
2018-07-23T00:56:28.670Z,11.30
2018-07-23T00:58:57.099Z,11.90
2018-07-23T01:01:25.557Z,12.73
2018-07-23T01:03:53.671Z,11.83
2018-07-23T01:06:22.097Z,13.07
2018-07-23T01:08:50.513Z,13.40
2018-07-23T01:11:18.945Z,12.23
2018-07-23T01:13:47.420Z,11.40
2018-07-23T01:16:15.904Z,11.90
2018-07-23T01:18:44.339Z,10.33
2018-07-23T01:21:12.789Z,12.43
2018-07-23T01:23:41.210Z,13.40
2018-07-23T01:26:09.669Z,12.40
2018-07-23T01:28:38.137Z,12.33
2018-07-23T01:31:06.909Z,12.60
2018-07-23T01:33:35.338Z,12.23
2018-07-23T01:36:03.787Z,12.67
2018-07-23T01:38:32.237Z,12.47
2018-07-23T01:41:00.657Z,13.00
2018-07-23T01:43:29.101Z,12.57
2018-07-23T01:45:57.605Z,12.40
2018-07-23T01:48:28.045Z,11.70
2018-07-23T01:50:56.490Z,12.57
2018-07-23T01:53:24.969Z,13.57
2018-07-23T01:55:53.416Z,12.87
2018-07-23T01:58:21.852Z,12.97
2018-07-23T02:00:50.289Z,14.00
2018-07-23T02:03:18.707Z,12.17
2018-07-23T02:05:47.165Z,12.67
2018-07-23T02:08:15.619Z,12.80
2018-07-23T02:10:44.054Z,12.23
2018-07-23T02:13:12.502Z,12.43
2018-07-23T02:15:40.944Z,11.53
2018-07-23T02:18:09.424Z,11.70
2018-07-23T02:20:37.894Z,12.23
2018-07-23T02:23:06.353Z,12.10
2018-07-23T02:25:34.830Z,12.13
2018-07-23T02:28:03.290Z,11.60
2018-07-23T02:30:31.422Z,11.10
2018-07-23T02:32:59.905Z,12.40
2018-07-23T02:35:28.364Z,11.40
2018-07-23T02:37:56.818Z,12.43
2018-07-23T02:40:25.283Z,12.07
2018-07-23T02:42:54.275Z,11.87
2018-07-23T02:45:22.738Z,12.37
2018-07-23T02:47:51.214Z,12.40
2018-07-23T02:50:19.658Z,11.97
2018-07-23T02:52:48.213Z,12.43
2018-07-23T02:55:16.704Z,11.47
2018-07-23T02:57:45.154Z,12.93
2018-07-23T03:00:13.673Z,11.83
2018-07-23T03:02:42.106Z,12.20
2018-07-23T03:05:10.590Z,14.40
2018-07-23T03:07:39.062Z,13.03
2018-07-23T03:10:07.630Z,12.90
2018-07-23T03:12:36.117Z,12.40
2018-07-23T03:15:05.630Z,12.10
2018-07-23T03:17:34.090Z,12.00
2018-07-23T03:20:02.523Z,12.60
2018-07-23T03:22:31.002Z,12.17
2018-07-23T03:24:59.441Z,12.23
2018-07-23T03:27:27.869Z,11.73
2018-07-23T03:29:56.317Z,12.27
2018-07-23T03:32:24.786Z,11.53
2018-07-23T03:34:53.258Z,12.17
2018-07-23T03:37:21.705Z,12.73
2018-07-23T03:39:50.142Z,10.57
2018-07-23T03:42:18.569Z,12.40
2018-07-23T03:44:47.041Z,12.07
2018-07-23T03:47:15.474Z,12.17
2018-07-23T03:49:43.910Z,12.33
2018-07-23T03:52:12.354Z,10.60
2018-07-23T03:54:40.867Z,12.30
2018-07-23T03:57:09.309Z,11.50
2018-07-23T03:59:37.789Z,12.23
2018-07-23T04:02:07.427Z,12.80
2018-07-23T04:04:35.934Z,10.87
2018-07-23T04:07:04.394Z,11.63
2018-07-23T04:09:32.858Z,12.57
2018-07-23T04:12:01.314Z,11.57
2018-07-23T04:14:29.745Z,12.40
2018-07-23T04:17:00.474Z,12.40
2018-07-23T04:19:28.951Z,10.90
2018-07-23T04:21:57.394Z,11.53
2018-07-23T04:24:25.834Z,11.87
2018-07-23T04:26:54.270Z,11.07
2018-07-23T04:29:22.762Z,11.93
2018-07-23T04:31:51.223Z,11.27
2018-07-23T04:34:19.670Z,11.30
2018-07-23T04:36:48.110Z,11.57
2018-07-23T04:39:16.550Z,11.73
2018-07-23T04:41:45.000Z,12.47
2018-07-23T04:44:13.428Z,10.53
2018-07-23T04:46:41.885Z,11.37
2018-07-23T04:49:10.404Z,10.33
2018-07-23T04:51:38.858Z,10.10
2018-07-23T04:54:07.305Z,10.80
2018-07-23T04:56:35.774Z,11.97
2018-07-23T04:59:04.321Z,10.63
2018-07-23T05:01:32.818Z,11.13
2018-07-23T05:04:01.262Z,12.20
2018-07-23T05:06:29.692Z,11.40
2018-07-23T05:08:58.138Z,10.87
2018-07-23T05:11:26.569Z,11.00
2018-07-23T05:13:54.998Z,9.80
2018-07-23T05:16:23.442Z,9.77
2018-07-23T05:18:51.897Z,10.63
2018-07-23T05:21:20.326Z,9.07
2018-07-23T05:23:48.797Z,9.60
2018-07-23T05:26:17.253Z,9.07
2018-07-23T05:28:45.658Z,7.83
2018-07-23T05:31:14.083Z,9.03
2018-07-23T05:33:42.505Z,9.23
2018-07-23T05:36:10.987Z,8.70
2018-07-23T05:38:39.472Z,7.67
2018-07-23T05:41:07.896Z,7.57
2018-07-23T05:43:36.350Z,8.07
2018-07-23T05:46:04.818Z,8.50
2018-07-23T05:48:33.261Z,8.63
2018-07-23T05:51:01.714Z,7.90
2018-07-23T05:53:30.169Z,8.87
2018-07-23T05:55:58.633Z,8.50
2018-07-23T05:58:27.149Z,8.70
2018-07-23T06:00:55.624Z,9.20
2018-07-23T06:03:24.067Z,9.80
2018-07-23T06:05:52.485Z,9.27
2018-07-23T06:08:20.946Z,10.30
2018-07-23T06:10:49.385Z,9.30
2018-07-23T06:13:17.821Z,10.30
2018-07-23T06:15:46.297Z,10.40
2018-07-23T06:18:14.760Z,8.77
2018-07-23T06:20:43.205Z,9.50
2018-07-23T06:23:11.645Z,9.17
2018-07-23T06:25:40.144Z,9.73
2018-07-23T06:28:08.634Z,9.03
2018-07-23T06:30:37.082Z,10.90
2018-07-23T06:33:05.625Z,10.13
2018-07-23T06:35:34.062Z,8.70
2018-07-23T06:38:02.510Z,9.53
2018-07-23T06:40:31.010Z,10.20
2018-07-23T06:42:59.544Z,10.03
2018-07-23T06:45:27.997Z,10.03
2018-07-23T06:47:56.433Z,9.23
2018-07-23T06:50:24.880Z,10.97
2018-07-23T06:52:53.301Z,9.07
2018-07-23T06:55:21.738Z,9.50
2018-07-23T06:57:50.172Z,8.70
2018-07-23T07:00:18.642Z,8.20
2018-07-23T07:02:47.066Z,7.73
2018-07-23T07:05:15.517Z,8.23
2018-07-23T07:07:43.645Z,7.10
2018-07-23T07:10:12.131Z,7.30
2018-07-23T07:12:40.566Z,8.10
2018-07-23T07:15:09.106Z,7.30
2018-07-23T07:17:37.563Z,7.73
2018-07-23T07:20:06.000Z,9.43
2018-07-23T07:22:34.421Z,7.20
2018-07-23T07:25:02.897Z,8.00
2018-07-23T07:27:31.337Z,9.27
2018-07-23T07:29:59.781Z,8.10
2018-07-23T07:32:28.198Z,8.97
2018-07-23T07:34:56.633Z,8.97
2018-07-23T07:37:25.091Z,8.47
2018-07-23T07:39:53.525Z,7.57
2018-07-23T07:42:21.966Z,7.27
2018-07-23T07:44:50.522Z,7.27
2018-07-23T07:47:18.995Z,8.50
2018-07-23T07:49:49.183Z,8.73
2018-07-23T07:52:19.102Z,8.40
2018-07-23T07:54:47.594Z,7.33
2018-07-23T07:57:16.029Z,7.00
2018-07-23T07:59:44.494Z,7.80
2018-07-23T08:02:12.941Z,7.20
2018-07-23T08:04:41.370Z,7.90
2018-07-23T08:07:09.815Z,6.33
2018-07-23T08:09:38.261Z,7.07
2018-07-23T08:12:06.732Z,7.53
2018-07-23T08:14:35.186Z,6.63
2018-07-23T08:17:03.618Z,6.80
2018-07-23T08:19:32.043Z,6.30
2018-07-23T08:22:00.474Z,6.73
2018-07-23T08:24:28.932Z,6.20
2018-07-23T08:26:57.373Z,7.10
2018-07-23T08:29:25.909Z,7.10
2018-07-23T08:31:54.434Z,7.53
2018-07-23T08:34:23.143Z,6.17
2018-07-23T08:36:51.602Z,6.20
2018-07-23T08:39:25.077Z,6.10
2018-07-23T08:41:53.709Z,5.30
2018-07-23T08:44:22.201Z,6.70
2018-07-23T08:46:50.669Z,6.80
2018-07-23T08:49:19.098Z,7.10
2018-07-23T08:51:47.522Z,6.73
2018-07-23T08:54:15.985Z,7.43
2018-07-23T08:56:44.422Z,6.47
2018-07-23T08:59:12.838Z,6.50
2018-07-23T09:01:41.381Z,6.00
2018-07-23T09:04:09.826Z,6.50
2018-07-23T09:06:38.288Z,6.20
2018-07-23T09:09:09.232Z,6.57
2018-07-23T09:11:37.669Z,6.23
2018-07-23T09:14:06.623Z,7.37
2018-07-23T09:16:35.177Z,7.13
2018-07-23T09:19:03.730Z,8.17
2018-07-23T09:21:33.269Z,7.63
2018-07-23T09:24:01.698Z,7.47
2018-07-23T09:26:30.155Z,5.80
2018-07-23T09:28:58.614Z,6.10
2018-07-23T09:31:27.067Z,6.47
2018-07-23T09:33:55.497Z,6.30
2018-07-23T09:36:23.928Z,6.63
2018-07-23T09:38:52.386Z,7.00
2018-07-23T09:41:20.830Z,7.23
2018-07-23T09:43:49.249Z,8.57
2018-07-23T09:46:17.675Z,7.73
2018-07-23T09:48:46.110Z,7.50
2018-07-23T09:51:14.568Z,6.03
2018-07-23T09:53:43.055Z,5.37
2018-07-23T09:56:11.486Z,6.57
2018-07-23T09:58:40.002Z,7.33
2018-07-23T10:01:11.455Z,6.33
2018-07-23T10:03:40.450Z,6.67
2018-07-23T10:06:08.818Z,6.70
2018-07-23T10:08:37.253Z,6.73
2018-07-23T10:11:05.726Z,7.57
2018-07-23T10:13:34.149Z,6.43
2018-07-23T10:16:02.602Z,7.00
2018-07-23T10:18:31.048Z,5.70
2018-07-23T10:20:59.487Z,6.07
2018-07-23T10:23:27.942Z,5.43
2018-07-23T10:25:56.377Z,5.60
2018-07-23T10:28:24.818Z,6.50
2018-07-23T10:30:53.253Z,4.77
2018-07-23T10:33:21.709Z,4.70
2018-07-23T10:35:50.137Z,4.73
2018-07-23T10:38:18.564Z,5.20
2018-07-23T10:40:47.014Z,5.00
2018-07-23T10:43:15.449Z,4.53
2018-07-23T10:45:43.933Z,3.93
2018-07-23T10:48:12.362Z,5.40
2018-07-23T10:50:40.834Z,4.13
2018-07-23T10:53:09.278Z,4.97
2018-07-23T10:55:37.741Z,3.60
2018-07-23T10:58:08.942Z,3.00
2018-07-23T11:00:37.442Z,3.33
2018-07-23T11:03:05.956Z,3.60
2018-07-23T11:05:34.385Z,4.57
2018-07-23T11:08:02.833Z,5.17
2018-07-23T11:10:31.298Z,5.20
2018-07-23T11:12:59.997Z,4.27
2018-07-23T11:15:28.438Z,5.20
2018-07-23T11:17:56.870Z,3.70
2018-07-23T11:20:24.999Z,5.23
2018-07-23T11:22:53.530Z,5.30
2018-07-23T11:25:38.978Z,5.53
2018-07-23T11:27:50.798Z,4.13
2018-07-23T11:30:19.438Z,3.53
2018-07-23T11:32:47.869Z,3.90
2018-07-23T11:35:16.302Z,4.43
2018-07-23T11:37:44.723Z,5.37
2018-07-23T11:40:13.168Z,5.00
2018-07-23T11:42:41.695Z,4.50
2018-07-23T11:45:10.177Z,4.73
2018-07-23T11:47:38.618Z,4.50
2018-07-23T11:50:07.078Z,5.00
2018-07-23T11:52:35.517Z,4.50
2018-07-23T11:55:04.014Z,3.90
2018-07-23T11:57:32.445Z,4.43
2018-07-23T12:00:01.062Z,3.70
2018-07-23T12:02:29.479Z,4.80
2018-07-23T12:04:57.942Z,4.30
2018-07-23T12:07:26.442Z,5.07
2018-07-23T12:09:54.922Z,5.47
2018-07-23T12:12:23.363Z,4.90
2018-07-23T12:14:51.805Z,5.37
2018-07-23T12:17:20.407Z,5.20
2018-07-23T12:19:48.794Z,5.03
2018-07-23T12:22:17.235Z,6.03
2018-07-23T12:24:45.673Z,5.13
2018-07-23T12:27:14.113Z,5.90
2018-07-23T12:29:42.533Z,4.90
2018-07-23T12:32:11.091Z,5.50
2018-07-23T12:34:39.541Z,5.00
2018-07-23T12:37:08.002Z,4.30
2018-07-23T12:39:36.463Z,6.50
2018-07-23T12:42:04.924Z,6.57
2018-07-23T12:44:33.364Z,6.43
2018-07-23T12:47:01.880Z,6.53
2018-07-23T12:49:30.265Z,6.63
2018-07-23T12:51:58.701Z,6.30
2018-07-23T12:54:27.154Z,6.17
2018-07-23T12:56:55.639Z,6.00
2018-07-23T12:59:24.080Z,5.13
2018-07-23T13:01:52.566Z,6.63
2018-07-23T13:04:20.994Z,6.60
2018-07-23T13:06:49.510Z,7.50
2018-07-23T13:09:17.954Z,6.87
2018-07-23T13:11:46.455Z,6.97
2018-07-23T13:14:14.893Z,6.70
2018-07-23T13:16:43.318Z,6.50
2018-07-23T13:19:11.798Z,6.50
2018-07-23T13:21:40.257Z,5.13
2018-07-23T13:24:08.781Z,5.67
2018-07-23T13:26:37.247Z,6.40
2018-07-23T13:29:05.851Z,6.97
2018-07-23T13:31:34.353Z,6.90
2018-07-23T13:34:04.803Z,7.23
2018-07-23T13:36:33.318Z,7.63
2018-07-23T13:39:01.816Z,7.20
2018-07-23T13:41:30.249Z,8.17
2018-07-23T13:43:58.679Z,8.23
2018-07-23T13:46:27.153Z,9.40
2018-07-23T13:48:55.557Z,7.80
2018-07-23T13:51:24.017Z,8.20
2018-07-23T13:53:52.461Z,8.13
2018-07-23T13:56:20.976Z,7.80
2018-07-23T13:58:49.414Z,8.20
2018-07-23T14:01:17.918Z,8.13
2018-07-23T14:03:46.391Z,7.53
2018-07-23T14:06:14.825Z,8.20
2018-07-23T14:08:43.261Z,7.47
2018-07-23T14:11:11.714Z,7.87
2018-07-23T14:13:40.154Z,7.30
2018-07-23T14:16:08.610Z,8.40
2018-07-23T14:18:37.301Z,7.70
2018-07-23T14:23:58.399Z,7.20
2018-07-23T14:26:26.871Z,7.10
2018-07-23T14:28:55.318Z,7.63
2018-07-23T14:31:23.762Z,7.37
2018-07-23T14:33:52.220Z,7.07
2018-07-23T14:36:20.674Z,6.80
2018-07-23T14:38:49.103Z,7.30
2018-07-23T14:41:17.557Z,7.97
2018-07-23T14:43:45.985Z,6.87
2018-07-23T14:46:14.446Z,8.07
2018-07-23T14:48:42.917Z,7.90
2018-07-23T14:51:11.874Z,8.07
2018-07-23T14:53:40.349Z,9.17
2018-07-23T14:56:08.950Z,10.20
2018-07-23T14:58:38.246Z,8.97
2018-07-23T15:01:06.842Z,8.80
2018-07-23T15:03:35.292Z,9.60
2018-07-23T15:06:03.774Z,8.70
2018-07-23T15:08:32.209Z,9.63
2018-07-23T15:11:00.647Z,8.70
2018-07-23T15:13:29.146Z,9.20
2018-07-23T15:15:57.589Z,9.33
2018-07-23T15:18:26.023Z,9.70
2018-07-23T15:20:54.470Z,9.00
2018-07-23T15:23:22.949Z,9.33
2018-07-23T15:25:51.402Z,9.07
2018-07-23T15:28:19.872Z,8.97
2018-07-23T15:30:48.003Z,8.90
2018-07-23T15:33:16.489Z,8.73
2018-07-23T15:35:44.934Z,8.50
2018-07-23T15:38:13.393Z,8.90
2018-07-23T15:40:41.851Z,10.63
2018-07-23T15:43:10.303Z,8.27
2018-07-23T15:45:38.946Z,9.30
2018-07-23T15:48:07.766Z,9.50
2018-07-23T15:50:36.237Z,9.97
2018-07-23T15:53:04.725Z,9.37
2018-07-23T15:55:33.832Z,9.47
2018-07-23T15:58:02.297Z,9.63
2018-07-23T16:00:30.825Z,9.20
2018-07-23T16:02:59.305Z,9.93
2018-07-23T16:05:27.810Z,9.50
2018-07-23T16:07:56.259Z,8.20
2018-07-23T16:10:25.066Z,9.80
2018-07-23T16:12:53.529Z,9.67
2018-07-23T16:15:21.998Z,10.47
2018-07-23T16:17:50.489Z,9.90
2018-07-23T16:20:18.947Z,11.00
2018-07-23T16:22:47.397Z,10.10
2018-07-23T16:25:15.847Z,11.10
2018-07-23T16:27:44.325Z,10.90
2018-07-23T16:30:12.877Z,10.83
2018-07-23T16:32:41.376Z,10.83
2018-07-23T16:35:11.093Z,11.70
2018-07-23T16:37:39.575Z,11.27
2018-07-23T16:40:08.360Z,10.70
2018-07-23T16:42:36.873Z,12.83
2018-07-23T16:45:05.679Z,12.07
2018-07-23T16:47:34.185Z,12.60
2018-07-23T16:50:02.690Z,12.73
2018-07-23T16:52:31.228Z,11.83
2018-07-23T16:54:59.697Z,12.73
2018-07-23T16:57:28.162Z,12.17
2018-07-23T16:59:56.671Z,12.70
2018-07-23T17:02:25.438Z,11.40
2018-07-23T17:04:53.895Z,13.30
2018-07-23T17:07:22.355Z,11.70
2018-07-23T17:09:51.194Z,12.67
2018-07-23T17:12:19.661Z,12.00
2018-07-23T17:14:48.097Z,13.80
2018-07-23T17:17:16.545Z,12.00
2018-07-23T17:19:44.973Z,11.83
2018-07-23T17:22:13.421Z,12.43
2018-07-23T17:24:41.917Z,13.27
2018-07-23T17:27:10.391Z,12.23
2018-07-23T17:29:38.857Z,13.10
2018-07-23T17:32:08.752Z,12.60
2018-07-23T17:34:37.401Z,12.83
2018-07-23T17:37:05.866Z,10.80
2018-07-23T17:39:34.353Z,12.20
2018-07-23T17:42:02.890Z,12.30
2018-07-23T17:44:31.382Z,12.83
2018-07-23T17:46:59.822Z,11.07
2018-07-23T17:49:28.289Z,11.43
2018-07-23T17:51:56.734Z,11.53
2018-07-23T17:54:37.495Z,10.63
2018-07-23T17:57:05.632Z,10.50
2018-07-23T17:59:34.104Z,11.40
2018-07-23T18:02:02.757Z,9.83
2018-07-23T18:04:31.245Z,11.17
2018-07-23T18:06:59.717Z,10.90
2018-07-23T18:09:28.149Z,11.23
2018-07-23T18:11:56.587Z,10.80
2018-07-23T18:14:25.054Z,11.83
2018-07-23T18:16:53.584Z,10.47
2018-07-23T18:19:22.037Z,10.37
2018-07-23T18:21:50.509Z,10.17
2018-07-23T18:24:18.986Z,9.83
2018-07-23T18:26:47.465Z,10.30
2018-07-23T18:29:16.060Z,11.10
2018-07-23T18:31:44.649Z,11.07
2018-07-23T18:34:13.234Z,10.47
2018-07-23T18:36:41.800Z,11.60
2018-07-23T18:39:11.931Z,11.27
2018-07-23T18:41:40.969Z,11.63
2018-07-23T18:44:09.769Z,11.60
2018-07-23T18:46:38.348Z,11.47
2018-07-23T18:49:20.443Z,11.67
2018-07-23T18:51:50.095Z,10.17
2018-07-23T18:54:20.157Z,10.43
2018-07-23T18:56:50.915Z,11.77
2018-07-23T18:59:19.536Z,10.63
2018-07-23T19:01:49.217Z,10.77
2018-07-23T19:04:17.850Z,10.50
2018-07-23T19:06:46.465Z,10.87
2018-07-23T19:09:15.915Z,11.63
2018-07-23T19:11:45.600Z,10.43
2018-07-23T19:14:15.156Z,10.70
2018-07-23T19:16:44.184Z,11.90
2018-07-23T19:19:12.909Z,11.37
2018-07-23T19:21:41.610Z,12.40
2018-07-23T19:24:10.379Z,12.30
2018-07-23T19:26:38.849Z,11.13
2018-07-23T19:29:07.289Z,11.43
2018-07-23T19:31:35.412Z,11.53
2018-07-23T19:34:04.589Z,12.07
2018-07-23T19:36:33.052Z,12.27
2018-07-23T19:39:01.917Z,11.70
2018-07-23T19:41:30.834Z,12.37
2018-07-23T19:43:59.257Z,11.00
2018-07-23T19:46:27.738Z,11.37
2018-07-23T19:49:08.497Z,11.87
2018-07-23T19:51:37.102Z,12.93
2018-07-23T19:54:06.326Z,12.10
2018-07-23T19:56:34.789Z,11.67
2018-07-23T19:59:03.273Z,12.00
2018-07-23T20:01:31.781Z,13.20
2018-07-23T20:04:00.417Z,12.20
2018-07-23T20:06:28.888Z,10.60
2018-07-23T20:08:58.323Z,12.37
2018-07-23T20:11:27.140Z,13.30
2018-07-23T20:13:55.590Z,14.27
2018-07-23T20:16:24.089Z,13.13
2018-07-23T20:18:52.605Z,14.43
2018-07-23T20:21:21.066Z,14.40
2018-07-23T20:23:49.513Z,14.60
2018-07-23T20:26:17.977Z,13.70
2018-07-23T20:28:46.422Z,14.73
2018-07-23T20:31:14.889Z,13.97
2018-07-23T20:33:43.333Z,13.80
2018-07-23T20:36:11.788Z,13.23
2018-07-23T20:38:41.338Z,12.70
2018-07-23T20:41:09.831Z,13.50
2018-07-23T20:43:38.295Z,14.87
2018-07-23T20:46:06.881Z,12.70
2018-07-23T20:48:35.343Z,14.50
2018-07-23T20:51:04.441Z,14.50
2018-07-23T20:53:32.976Z,13.90
2018-07-23T20:56:01.430Z,15.80
2018-07-23T20:58:29.929Z,15.43
2018-07-23T21:00:58.462Z,15.17
2018-07-23T21:03:26.919Z,15.23
2018-07-23T21:05:55.373Z,15.53
2018-07-23T21:08:23.837Z,15.73
2018-07-23T21:10:52.334Z,15.60
2018-07-23T21:13:20.813Z,15.00
2018-07-23T21:15:49.288Z,15.13
2018-07-23T21:18:17.800Z,15.33
2018-07-23T21:20:46.258Z,15.80
2018-07-23T21:23:14.758Z,15.83
2018-07-23T21:25:43.254Z,16.80
2018-07-23T21:28:11.724Z,17.37
2018-07-23T21:30:40.182Z,18.70
2018-07-23T21:33:08.681Z,17.97
2018-07-23T21:35:37.149Z,18.17
2018-07-23T21:38:05.708Z,17.80
2018-07-23T21:40:34.202Z,17.67
2018-07-23T21:43:02.709Z,17.27
2018-07-23T21:45:31.190Z,18.27
2018-07-23T21:47:59.707Z,17.40
2018-07-23T21:50:28.174Z,16.30
2018-07-23T21:52:57.581Z,16.70
2018-07-23T21:55:26.071Z,19.00
2018-07-23T21:57:54.705Z,18.83
2018-07-23T22:00:23.286Z,18.13
2018-07-23T22:02:51.765Z,20.17
2018-07-23T22:05:20.306Z,17.97
2018-07-23T22:07:48.761Z,19.20
2018-07-23T22:10:17.228Z,19.10
2018-07-23T22:12:45.707Z,19.23
2018-07-23T22:15:14.197Z,18.93
2018-07-23T22:17:42.669Z,17.27
2018-07-23T22:20:10.806Z,19.00
2018-07-23T22:22:39.329Z,19.10
2018-07-23T22:25:07.827Z,19.43
2018-07-23T22:27:36.298Z,16.83
2018-07-23T22:30:04.852Z,18.47
2018-07-23T22:32:33.327Z,19.47
2018-07-23T22:35:01.783Z,20.43
2018-07-23T22:37:30.241Z,21.17
2018-07-23T22:39:58.729Z,21.60
2018-07-23T22:42:27.266Z,20.70
2018-07-23T22:44:55.749Z,19.73
2018-07-23T22:47:24.214Z,21.30
2018-07-23T22:49:52.368Z,19.10
2018-07-23T22:52:20.829Z,18.67
2018-07-23T22:54:49.309Z,20.20
2018-07-23T22:57:17.771Z,22.10
2018-07-23T22:59:46.265Z,20.90
2018-07-23T23:02:14.774Z,18.93
2018-07-23T23:04:43.234Z,18.13
2018-07-23T23:07:11.691Z,17.80
2018-07-23T23:09:40.185Z,20.77
2018-07-23T23:12:08.672Z,19.37
2018-07-23T23:14:37.128Z,18.23
2018-07-23T23:17:05.630Z,20.17
2018-07-23T23:19:34.089Z,19.77
2018-07-23T23:22:02.548Z,20.70
2018-07-23T23:24:30.999Z,18.43
2018-07-23T23:27:00.489Z,21.33
2018-07-23T23:29:28.942Z,21.10
2018-07-23T23:31:57.397Z,19.60
2018-07-23T23:34:25.862Z,20.63
2018-07-23T23:36:54.329Z,18.37
2018-07-23T23:39:22.783Z,19.53
2018-07-23T23:41:51.247Z,20.20
2018-07-23T23:44:19.704Z,19.10
2018-07-23T23:46:48.155Z,20.60
2018-07-23T23:49:16.662Z,19.80
2018-07-23T23:51:45.193Z,18.30
2018-07-23T23:54:13.646Z,20.30
2018-07-23T23:56:42.104Z,20.93
2018-07-23T23:59:10.549Z,19.90
